• Join FlightAware (Why Join?)
  • Login
  • US Flag 
12:32AM EST


 

Airport Tracker/Info


-or-


 

Live Flight TrackerFlight Track Log ✈ DAL1981 ✈ 08-Oct-2013 ✈ KSMF - KMSP

Flight Track Log - Related Links

Times and Time Zones

All times are in EDT time to prevent confusion due to time zone crossing. See the DAL1981 flight status page for this flight to view local times or setup timezone preferences in your user account.

Time Position Orientation Groundspeed Altitude Reporting Facility
EDT Latitude Longitude Course Direction KTS MPH feet Rate Location/Type
04:02PM 38.7500 -121.5667 124° Southeast 198 228 1,900  Level Northern Cal TRACON
04:03PM 38.7500 -121.4833 90° East 240 276 4,800 2,460 Climbing Northern Cal TRACON
04:05PM 38.9243 -120.9710 76° East  Level Estimated
04:05PM 38.7594 -121.3117 86° East 278 320 9,300  Level Oakland Center
04:06PM 38.9810 -120.8155 76° East  Level Estimated
04:06PM 38.7550 -121.2019 93° East 304 350 10,800  Level Oakland Center
04:07PM 38.9063 -120.6731 124° Southeast  Level FlightAware Approximate
04:07PM 38.7508 -121.0664 92° East 371 427 12,000  Level Oakland Center
04:08PM 38.7453 -120.9211 93° East 397 457 14,000 2,040 Climbing Oakland Center
04:09PM 38.7939 -120.7583 69° East 429 494 16,300 1,920 Climbing Oakland Center
04:10PM 38.8706 -120.6350 51° Northeast 435 501 18,000 2,340 Climbing Oakland Center
04:11PM 38.9447 -120.5161 51° Northeast 434 499 21,100 1,740 Climbing Oakland Center
04:12PM 39.0217 -120.3936 51° Northeast 434 499 21,600 900 Climbing Oakland Center
04:13PM 39.1047 -120.2608 51° Northeast 470 541 23,000 1,620 Climbing Oakland Center
04:14PM 39.1953 -120.1133 52° Northeast 473 544 25,000 1,680 Climbing Oakland Center
04:15PM 39.2786 -119.9811 51° Northeast 474 545 26,500 1,380 Climbing Oakland Center
04:16PM 39.3594 -119.8489 52° Northeast 470 541 27,900 1,800 Climbing Oakland Center
04:17PM 39.4408 -119.7189 51° Northeast 464 534 30,300 1,860 Climbing Oakland Center
04:18PM 39.5144 -119.5956 52° Northeast 433 498 31,800 840 Climbing Oakland Center
04:19PM 39.5903 -119.4717 52° Northeast 437 503 32,100 660 Climbing Oakland Center
04:20PM 39.6686 -119.3422 52° Northeast 452 520 33,200 660 Climbing Oakland Center
04:21PM 39.7464 -119.2133 52° Northeast 451 519 33,500 300 Climbing Oakland Center
04:22PM 39.8269 -119.0792 52° Northeast 463 533 33,900 720 Climbing Oakland Center
04:23PM 39.9072 -118.9431 52° Northeast 469 540 35,000 480 Climbing Oakland Center
04:24PM 39.9872 -118.8106 52° Northeast 465 535 35,000  Level Oakland Center
04:25PM 40.0700 -118.6697 52° Northeast 480 552 35,000  Level Oakland Center
04:26PM 40.1506 -118.4778 61° Northeast 504 580 35,000  Level Oakland Center
04:27PM 40.1878 -118.3461 70° East 497 572 35,000  Level Salt Lake Center
04:28PM 40.2333 -118.1825 70° East 500 575 35,000  Level Salt Lake Center
04:29PM 40.2786 -118.0203 70° East 497 572 35,000  Level Salt Lake Center
04:30PM 40.3300 -117.8272 71° East 500 575 35,000  Level Salt Lake Center
04:31PM 40.3742 -117.6636 70° East 498 573 35,000  Level Salt Lake Center
04:32PM 40.4250 -117.4706 71° East 499 574 35,000  Level Salt Lake Center
04:33PM 40.4689 -117.3050 71° East 500 575 35,000 240 Level Salt Lake Center
04:34PM 40.5200 -117.1111 71° East 499 574 35,500 420 Climbing Salt Lake Center
04:35PM 40.5647 -116.9428 71° East 501 577 35,900 420 Climbing Salt Lake Center
04:36PM 40.6247 -116.7822 64° Northeast 502 578 36,400 480 Climbing Salt Lake Center
04:37PM 40.6961 -116.5981 63° Northeast 502 578 37,000 240 Climbing Salt Lake Center
04:38PM 40.7575 -116.4392 63° Northeast 506 582 37,000  Level Salt Lake Center
04:39PM 40.8192 -116.2775 63° Northeast 512 589 37,000  Level Salt Lake Center
04:40PM 40.8928 -116.0886 63° Northeast 518 596 37,000  Level Salt Lake Center
04:41PM 40.9539 -115.9286 63° Northeast 512 589 37,000  Level Salt Lake Center
04:42PM 41.0247 -115.7397 64° Northeast 513 590 37,000  Level Salt Lake Center
04:44PM 41.0858 -115.5750 64° Northeast 517 595 37,000  Level Salt Lake Center
04:45PM 41.1483 -115.4108 63° Northeast 520 598 37,000  Level Salt Lake Center
04:46PM 41.2192 -115.2178 64° Northeast 520 598 37,100  Climbing Salt Lake Center
04:47PM 41.2811 -115.0542 63° Northeast 519 597 37,000 -60 Descending Salt Lake Center
04:48PM 41.3522 -114.8606 64° Northeast 521 600 37,000 -60 Level Salt Lake Center
04:49PM 41.4178 -114.6828 64° Northeast 525 604 36,900  Descending Salt Lake Center
04:50PM 41.4814 -114.5064 64° Northeast 529 609 37,000 60 Climbing Salt Lake Center
04:51PM 41.5456 -114.3272 64° Northeast 533 613 37,100  Climbing Salt Lake Center
04:52PM 41.6097 -114.1500 64° Northeast 532 612 37,000 -60 Descending Salt Lake Center
04:53PM 41.6717 -113.9708 65° Northeast 532 612 37,000  Level Salt Lake Center
04:54PM 41.7372 -113.7917 64° Northeast 535 616 37,000  Level Salt Lake Center
04:55PM 41.8128 -113.5758 65° Northeast 533 613 37,100 -60 Climbing Salt Lake Center
04:56PM 41.8761 -113.3961 65° Northeast 533 613 36,900 -60 Descending Salt Lake Center
04:57PM 41.9378 -113.2161 65° Northeast 531 611 37,000  Climbing Salt Lake Center
04:58PM 42.0003 -113.0361 65° Northeast 532 612 37,000  Level Salt Lake Center
04:59PM 42.0619 -112.8550 65° Northeast 533 613 37,000  Level Salt Lake Center
05:00PM 42.1239 -112.6733 65° Northeast 533 613 37,000  Level Salt Lake Center
05:01PM 42.1858 -112.4897 65° Northeast 536 617 37,000  Level Salt Lake Center
05:02PM 42.2461 -112.3083 66° East 532 612 37,000  Level Salt Lake Center
05:03PM 42.3178 -112.0897 66° East 530 610 37,000  Level Salt Lake Center
05:04PM 42.3700 -111.9036 69° East 531 611 37,000  Level Salt Lake Center
05:05PM 42.4072 -111.7144 75° East 523 602 37,000  Level Salt Lake Center
05:06PM 42.4456 -111.5258 75° East 521 600 37,000  Level Salt Lake Center
05:07PM 42.4833 -111.3356 75° East 523 602 37,000  Level Salt Lake Center
05:08PM 42.5211 -111.1469 75° East 521 600 37,000  Level Salt Lake Center
05:09PM 42.5639 -110.9325 75° East 523 602 37,000  Level Salt Lake Center
05:10PM 42.5992 -110.7508 75° East 522 601 37,000  Level Salt Lake Center
05:11PM 42.6403 -110.5361 75° East 524 603 37,100  Climbing Salt Lake Center
05:12PM 42.6753 -110.3536 75° East 523 602 37,000 -60 Descending Salt Lake Center
05:13PM 42.7111 -110.1619 76° East 521 600 37,000  Level Salt Lake Center
05:14PM 42.7514 -109.9478 76° East 524 603 37,000  Level Salt Lake Center
05:16PM 42.7636 -109.7403 75° East  Level FlightAware Approximate
05:16PM 42.8231 -109.5556 75° East 526 605 37,000  Level Salt Lake Center
05:17PM 42.8569 -109.3678 76° East 530 610 37,000  Level Salt Lake Center
05:18PM 42.8958 -109.1500 76° East 530 610 37,100  Climbing Salt Lake Center
05:20PM 42.9286 -108.9689 76° East 519 597 37,000 -60 Descending Salt Lake Center
05:21PM 42.9603 -108.7875 77° East 515 593 37,000  Level Salt Lake Center
05:22PM 42.9978 -108.5622 77° East 522 601 37,000  Level Salt Lake Center
05:23PM 43.0311 -108.3711 77° East 520 598 37,000  Level Salt Lake Center
05:24PM 43.0631 -108.1775 77° East 524 603 37,000  Level Salt Lake Center
05:25PM 43.0956 -107.9858 77° East 522 601 37,000  Level Salt Lake Center
05:26PM 43.1269 -107.7942 77° East 520 598 37,000  Level Salt Lake Center
05:27PM 43.1581 -107.6042 77° East 517 595 37,000  Level Salt Lake Center
05:28PM 43.1944 -107.3742 78° East 517 595 37,000  Level Salt Lake Center
05:29PM 43.2261 -107.1856 77° East 512 589 37,000  Level Salt Lake Center
05:30PM 43.2547 -106.9967 78° East 510 587 37,000  Level Salt Lake Center
05:31PM 43.2878 -106.7939 77° East 506 582 37,000  Level Salt Lake Center
05:32PM 43.3153 -106.6119 78° East 508 585 37,000  Level Salt Lake Center
05:33PM 43.3344 -106.4911 78° East 505 581 37,000  Level Denver Center
05:34PM 43.3658 -106.2783 78° East 509 586 37,000  Level Denver Center
05:35PM 43.3931 -106.0983 78° East 503 579 37,000  Level Denver Center
05:36PM 43.4242 -105.8869 78° East 504 580 37,000  Level Denver Center
05:37PM 43.4508 -105.7056 78° East 503 579 37,000  Level Denver Center
05:38PM 43.4814 -105.4917 79° East 508 585 37,000  Level Denver Center
05:39PM 43.5075 -105.3086 79° East 509 586 37,000  Level Denver Center
05:40PM 43.5381 -105.0958 79° East 507 583 37,000  Level Denver Center
05:41PM 43.5614 -104.9156 80° East 502 578 37,000  Level Denver Center
05:42PM 43.5908 -104.7031 79° East 502 578 37,000  Level Denver Center
05:43PM 43.6156 -104.5186 79° East 507 583 37,000  Level Denver Center
05:44PM 43.6403 -104.3317 80° East 512 589 37,000  Level Denver Center
05:45PM 43.6686 -104.1122 80° East 517 595 37,100  Climbing Denver Center
05:46PM 43.6939 -103.9244 79° East 519 597 37,100  Level Denver Center
05:47PM 43.7214 -103.7067 80° East 514 592 37,100 -60 Level Denver Center
05:48PM 43.7439 -103.5253 80° East 502 578 37,000 -120 Descending Denver Center
05:49PM 43.7700 -103.3181 80° East 493 567 36,900  Descending Denver Center
05:50PM 43.7917 -103.1400 80° East 490 564 37,000  Climbing Denver Center
05:51PM 43.8169 -102.9303 80° East 493 567 37,000  Level Denver Center
05:52PM 43.8381 -102.7500 81° East 495 570 37,000  Level Denver Center
05:53PM 43.8625 -102.5381 81° East 498 573 37,000  Level Denver Center
05:54PM 43.8822 -102.3467 82° East 498 573 37,000  Level Denver Center
05:55PM 43.9014 -102.1553 82° East 501 577 37,000  Level Denver Center
05:56PM 43.9222 -101.9639 81° East 502 578 37,000  Level Denver Center
05:57PM 43.9417 -101.7736 82° East 501 577 37,000  Level Denver Center
05:58PM 43.9656 -101.5875 80° East 497 572 37,000  Level Denver Center
05:59PM 43.9894 -101.3619 82° East 493 567 37,000  Level Denver Center
06:00PM 44.0044 -101.2114 82° East 495 570 37,000  Level Minneapolis Center
06:01PM 44.0244 -101.0242 81° East 493 567 37,000  Level Minneapolis Center
06:02PM 44.0436 -100.8375 82° East 492 566 37,000  Level Minneapolis Center
06:03PM 44.0622 -100.6489 82° East 492 566 37,000  Level Minneapolis Center
06:04PM 44.0831 -100.4239 83° East 492 566 37,000  Level Minneapolis Center
06:06PM 44.1017 -100.2347 82° East 495 570 37,000  Level Minneapolis Center
06:07PM 44.1189 -100.0483 83° East 491 565 37,000  Level Minneapolis Center
06:08PM 44.1361 -99.8594 83° East 494 568 37,000  Level Minneapolis Center
06:09PM 44.1539 -99.6725 82° East 491 565 37,000  Level Minneapolis Center
06:10PM 44.1733 -99.4456 83° East 494 568 37,000  Level Minneapolis Center
06:11PM 44.1908 -99.2575 83° East 493 567 37,000  Level Minneapolis Center
06:12PM 44.2075 -99.0678 83° East 496 571 37,000  Level Minneapolis Center
06:13PM 44.2231 -98.8792 83° East 492 566 37,000  Level Minneapolis Center
06:14PM 44.2381 -98.6908 84° East 490 564 37,000  Level Minneapolis Center
06:15PM 44.2522 -98.5025 84° East 490 564 37,000  Level Minneapolis Center
06:16PM 44.2686 -98.2819 84° East 491 565 37,000  Level Minneapolis Center
06:17PM 44.2825 -98.0906 84° East 493 567 37,000  Level Minneapolis Center
06:18PM 44.2969 -97.8983 84° East 498 573 37,000  Level Minneapolis Center
06:19PM 44.3106 -97.7081 84° East 495 570 37,000  Level Minneapolis Center
06:20PM 44.3247 -97.5169 84° East 495 570 37,000  Level Minneapolis Center
06:21PM 44.3400 -97.2853 85° East 500 575 37,000  Level Minneapolis Center
06:22PM 44.3539 -97.0933 84° East 498 573 37,000  Level Minneapolis Center
06:23PM 44.3661 -96.9014 85° East 497 572 37,000  Level Minneapolis Center
06:24PM 44.3783 -96.7086 85° East 497 572 37,000  Level Minneapolis Center
06:25PM 44.3903 -96.5147 85° East 498 573 37,000  Level Minneapolis Center
06:26PM 44.4039 -96.3194 84° East 499 574 37,000  Level Minneapolis Center
06:27PM 44.4161 -96.1208 85° East 502 578 37,000 -420 Level Minneapolis Center
06:28PM 44.4267 -95.9233 86° East 503 579 36,200 -960 Descending Minneapolis Center
06:29PM 44.4386 -95.6872 86° East 505 581 35,100 -1,620 Descending Minneapolis Center
06:30PM 44.4494 -95.4908 86° East 506 582 32,900 -3,000 Descending Minneapolis Center
06:31PM 44.4586 -95.2917 86° East 512 589 28,900 -4,020 Descending Minneapolis Center
06:32PM 44.4736 -95.0950 84° East 510 587 24,700 -3,420 Descending Minneapolis Center
06:33PM 44.5192 -94.9161 70° East 491 565 21,900 -2,580 Descending Minneapolis Center
06:34PM 44.5592 -94.7456 72° East 471 542 19,400 -2,760 Descending Minneapolis Center
06:36PM 44.5961 -94.5858 72° East 400 460 16,200 -3,120 Descending Minneapolis Center
06:37PM 44.6269 -94.4481 73° East 371 427 12,900 -2,460 Descending Minneapolis Center
06:38PM 44.6556 -94.3217 72° East 338 389 11,200 -1,020 Descending Minneapolis Center
06:39PM 44.6889 -94.1747 72° East 328 377 10,900 -180 Descending Minneapolis Center
06:40PM 44.7158 -94.0553 72° East 323 372 10,900 -480 Level Minneapolis Center
06:41PM 44.7597 -93.9689 54° Northeast 281 323 10,000 -1,020 Descending Minneapolis Center
06:42PM 44.8261 -93.9233 26° Northeast 266 306 8,900 -1,440 Descending Minneapolis Center
06:43PM 44.8919 -93.8942 17° North 251 289 7,100 -960 Descending Minneapolis Center
06:44PM 44.9578 -93.8783 10° North 241 277 7,000 -60 Descending Minneapolis Center
06:45PM 45.0247 -93.8186 32° Northeast 242 278 7,000 -480 Level Minneapolis Center
06:46PM 45.0408 -93.7322 75° East 234 269 6,100 -1,020 Descending Minneapolis Center
06:47PM 45.0308 -93.6486 100° East 218 251 5,000 -540 Descending Minneapolis Center
06:48PM 45.0206 -93.5667 100° East 213 245 5,000 -60 Level Minneapolis Center
06:49PM 44.9997 -93.4933 112° Southeast 200 230 4,900 -540 Descending Minneapolis Center
06:50PM 44.9725 -93.4300 121° Southeast 189 217 3,900 -1,020 Descending Minneapolis Center
06:51PM 44.9453 -93.3678 122° Southeast 156 180 2,900 -840 Descending Minneapolis Center
06:52PM 44.9247 -93.3194 121° Southeast 144 166 2,200 -720 Descending Minneapolis Center
06:53PM 44.9047 -93.2733 121° Southeast 139 160 1,500 -720 Descending Minneapolis Center